Time;durP1;ratioP1;P1;durP2;ratioP2;P2;SDS_P1;SDS_P2;PMS_P1;PMS_P2;Temp;Humidity;BMP_temperature;BMP_pressure;BME280_temperature;BME280_humidity;BME280_pressure;Samples;Min_cycle;Max_cycle;Signal;HPM_P1;HPM_P2
2022/02/14 00:00:57;;;;;;;11.30;4.63;;;9.20;99.90;;;;;;4979611;28;20504;-88
2022/02/14 00:03:23;;;;;;;14.40;5.93;;;9.20;99.90;;;;;;5014335;28;20030;-86
2022/02/14 00:05:49;;;;;;;11.85;4.50;;;9.20;99.90;;;;;;5004124;28;20523;-86
2022/02/14 00:08:15;;;;;;;13.18;4.82;;;9.20;99.90;;;;;;5001530;28;20398;-87
2022/02/14 00:10:41;;;;;;;13.05;5.22;;;9.20;99.90;;;;;;4984237;28;20040;-86
2022/02/14 00:13:09;;;;;;;12.70;4.88;;;9.20;99.90;;;;;;4985396;28;20080;-85
2022/02/14 00:15:35;;;;;;;11.18;4.97;;;9.20;99.90;;;;;;4963212;28;20065;-87
2022/02/14 00:18:01;;;;;;;12.50;4.80;;;9.20;99.90;;;;;;4983395;28;20059;-86
2022/02/14 00:20:29;;;;;;;10.27;4.50;;;9.10;99.90;;;;;;4967873;28;20042;-88
2022/02/14 00:22:55;;;;;;;10.68;4.90;;;9.10;99.90;;;;;;5020537;28;20319;-85
2022/02/14 00:25:23;;;;;;;10.98;4.82;;;9.10;99.90;;;;;;4991789;28;20128;-84
2022/02/14 00:27:49;;;;;;;13.70;5.28;;;9.10;99.90;;;;;;5008434;28;20038;-86
2022/02/14 00:30:14;;;;;;;11.73;5.20;;;9.10;99.90;;;;;;4970952;28;20385;-86
2022/02/14 00:32:40;;;;;;;14.18;4.90;;;9.10;99.90;;;;;;4963630;28;20254;-85
2022/02/14 00:35:07;;;;;;;11.25;4.82;;;9.00;99.90;;;;;;4982536;28;20120;-86
2022/02/14 00:37:32;;;;;;;12.90;4.40;;;9.00;99.90;;;;;;4998957;28;20128;-87
2022/02/14 00:39:58;;;;;;;8.95;4.35;;;9.00;99.90;;;;;;4988589;28;20136;-88
2022/02/14 00:42:24;;;;;;;10.85;4.47;;;9.10;99.90;;;;;;4993463;28;20049;-89
2022/02/14 00:44:51;;;;;;;12.52;4.60;;;9.10;99.90;;;;;;4963647;28;20042;-92
2022/02/14 00:47:16;;;;;;;12.85;4.90;;;9.10;99.90;;;;;;5001441;28;20096;-86
2022/02/14 00:49:42;;;;;;;10.18;4.28;;;9.10;99.90;;;;;;5002211;28;20046;-88
2022/02/14 00:52:08;;;;;;;14.02;4.97;;;9.10;99.90;;;;;;4968989;28;20046;-85
2022/02/14 00:54:34;;;;;;;9.68;4.18;;;9.20;99.90;;;;;;4970521;28;20030;-90
2022/02/14 00:57:00;;;;;;;8.43;4.68;;;9.20;99.90;;;;;;4990378;28;20421;-83
2022/02/14 00:59:27;;;;;;;9.88;4.72;;;9.20;99.90;;;;;;5001333;28;20034;-85
2022/02/14 01:01:53;;;;;;;7.90;4.28;;;9.30;99.90;;;;;;5022681;28;20065;-87
2022/02/14 01:04:19;;;;;;;8.27;4.03;;;9.30;99.90;;;;;;5000766;28;20514;-86
2022/02/14 01:06:45;;;;;;;10.30;4.03;;;9.30;99.90;;;;;;5005499;28;20046;-86
2022/02/14 01:09:11;;;;;;;13.20;4.15;;;9.30;99.90;;;;;;5025043;28;20607;-88
2022/02/14 01:11:37;;;;;;;8.80;3.80;;;9.40;99.90;;;;;;4974814;28;20041;-87
2022/02/14 01:14:03;;;;;;;7.07;3.85;;;9.30;99.90;;;;;;4998341;28;20048;-86
2022/02/14 01:16:29;;;;;;;15.52;4.50;;;9.30;99.90;;;;;;4984894;28;20034;-84
2022/02/14 01:18:55;;;;;;;10.55;4.65;;;9.30;99.90;;;;;;4998310;28;20088;-86
2022/02/14 01:21:21;;;;;;;8.55;4.10;;;9.30;99.90;;;;;;4986721;28;20046;-87
2022/02/14 01:23:46;;;;;;;9.50;4.30;;;9.20;99.90;;;;;;4977987;28;20111;-85
2022/02/14 01:26:12;;;;;;;12.02;4.47;;;9.20;99.90;;;;;;4976624;28;20492;-87
2022/02/14 01:28:38;;;;;;;10.05;4.60;;;9.20;99.90;;;;;;5004982;28;20069;-86
2022/02/14 01:31:04;;;;;;;15.68;4.88;;;9.20;99.90;;;;;;5004527;28;20129;-86
2022/02/14 01:33:30;;;;;;;10.15;4.00;;;9.10;99.90;;;;;;4989352;28;20042;-86
2022/02/14 01:35:55;;;;;;;12.25;4.25;;;9.10;99.90;;;;;;4967230;28;20034;-87
2022/02/14 01:38:21;;;;;;;8.15;4.03;;;9.10;99.90;;;;;;4999289;28;20258;-86
2022/02/14 01:40:47;;;;;;;13.80;4.20;;;9.20;99.90;;;;;;4998317;28;20061;-85
2022/02/14 01:43:15;;;;;;;10.30;4.05;;;9.20;99.90;;;;;;4971879;28;20101;-87
2022/02/14 01:45:44;;;;;;;9.65;4.75;;;9.20;99.90;;;;;;4987407;28;20129;-87
2022/02/14 01:48:11;;;;;;;9.70;4.20;;;9.20;99.90;;;;;;5000897;28;20066;-87
2022/02/14 01:50:37;;;;;;;15.00;4.70;;;9.20;99.90;;;;;;4965918;28;20511;-85
2022/02/14 01:53:03;;;;;;;11.75;4.68;;;9.20;99.90;;;;;;5001451;28;20034;-86
2022/02/14 01:55:30;;;;;;;9.98;4.22;;;9.20;99.90;;;;;;4986050;28;20038;-86
2022/02/14 01:57:55;;;;;;;10.45;4.82;;;9.20;99.90;;;;;;4969742;28;20092;-87
2022/02/14 02:00:21;;;;;;;9.85;4.38;;;9.20;99.90;;;;;;4986394;28;20046;-87
2022/02/14 02:02:47;;;;;;;12.35;4.22;;;9.20;99.90;;;;;;4982507;28;20061;-88
2022/02/14 02:05:13;;;;;;;10.23;4.00;;;9.20;99.90;;;;;;5006059;28;20656;-85
2022/02/14 02:07:39;;;;;;;14.38;4.93;;;9.20;99.90;;;;;;4992068;28;20160;-85
2022/02/14 02:10:07;;;;;;;9.77;4.18;;;9.20;99.90;;;;;;4974531;28;20042;-87
2022/02/14 02:12:33;;;;;;;8.75;4.13;;;9.20;99.90;;;;;;5003224;28;20038;-86
2022/02/14 02:15:02;;;;;;;10.77;4.10;;;9.20;99.90;;;;;;5016331;28;20038;-88
2022/02/14 02:17:31;;;;;;;9.52;4.03;;;9.20;99.90;;;;;;4999651;28;20042;-86
2022/02/14 02:19:57;;;;;;;12.82;4.65;;;9.20;99.90;;;;;;4998247;28;20034;-85
2022/02/14 02:22:23;;;;;;;9.40;3.78;;;9.20;99.90;;;;;;4996620;28;20038;-89
2022/02/14 02:24:50;;;;;;;9.02;4.05;;;9.20;99.90;;;;;;5006002;28;20048;-89
2022/02/14 02:27:17;;;;;;;11.65;4.22;;;9.20;99.90;;;;;;5003103;28;20044;-88
2022/02/14 02:29:44;;;;;;;9.07;3.92;;;9.30;99.90;;;;;;5006178;28;20489;-85
2022/02/14 02:32:11;;;;;;;9.57;3.58;;;9.30;99.90;;;;;;5019740;28;20087;-85
2022/02/14 02:34:43;;;;;;;9.73;4.00;;;9.30;99.90;;;;;;4992225;28;20035;-87
2022/02/14 02:37:14;;;;;;;7.88;3.80;;;9.40;99.90;;;;;;5004226;28;20041;-85
2022/02/14 02:39:41;;;;;;;8.50;4.00;;;9.40;99.90;;;;;;4985699;28;20460;-88
2022/02/14 02:42:08;;;;;;;11.13;3.88;;;9.50;99.90;;;;;;4984663;28;20075;-85
2022/02/14 02:44:35;;;;;;;11.07;3.40;;;9.50;99.90;;;;;;4999302;28;20077;-87
2022/02/14 02:47:04;;;;;;;9.57;3.90;;;9.50;99.90;;;;;;5011140;28;20443;-87
2022/02/14 02:49:30;;;;;;;12.48;4.25;;;9.50;99.90;;;;;;5002546;28;20042;-89
2022/02/14 02:51:56;;;;;;;11.48;3.53;;;9.50;99.90;;;;;;4992383;28;20038;-87
2022/02/14 02:54:24;;;;;;;8.35;3.60;;;9.60;99.90;;;;;;4994463;28;20153;-84
2022/02/14 02:56:53;;;;;;;11.43;4.13;;;9.60;99.90;;;;;;4995337;28;20095;-87
2022/02/14 02:59:20;;;;;;;9.85;3.47;;;9.60;99.90;;;;;;5000000;28;21456;-87
2022/02/14 03:01:46;;;;;;;10.35;3.80;;;9.60;99.90;;;;;;4998192;28;20038;-88
2022/02/14 03:04:14;;;;;;;10.38;3.55;;;9.60;99.90;;;;;;4977051;28;20045;-88
2022/02/14 03:06:40;;;;;;;10.98;3.35;;;9.60;99.90;;;;;;4982869;28;20046;-86
2022/02/14 03:09:07;;;;;;;7.80;3.63;;;9.60;99.90;;;;;;5016363;28;20607;-86
2022/02/14 03:11:35;;;;;;;13.85;3.90;;;9.60;99.90;;;;;;5003254;28;20040;-87
2022/02/14 03:14:00;;;;;;;11.23;3.97;;;9.60;99.90;;;;;;4970730;28;20072;-87
2022/02/14 03:16:27;;;;;;;11.57;4.05;;;9.60;99.90;;;;;;5012959;28;20069;-87
2022/02/14 03:18:53;;;;;;;8.05;3.55;;;9.70;99.90;;;;;;4999854;28;20045;-86
2022/02/14 03:21:22;;;;;;;9.10;3.97;;;9.60;99.90;;;;;;4966705;28;20042;-85
2022/02/14 03:23:49;;;;;;;10.05;4.10;;;9.70;99.90;;;;;;4984732;28;20116;-88
2022/02/14 03:26:17;;;;;;;12.55;3.58;;;9.60;99.90;;;;;;4980145;28;20044;-88
2022/02/14 03:28:50;;;;;;;11.80;3.97;;;9.70;99.90;;;;;;4994838;28;20096;-86
2022/02/14 03:31:17;;;;;;;11.38;3.67;;;9.70;99.90;;;;;;4994110;28;20503;-86
2022/02/14 03:33:43;;;;;;;11.93;3.78;;;9.60;99.90;;;;;;4983733;28;20056;-86
2022/02/14 03:36:10;;;;;;;6.50;3.40;;;9.70;99.90;;;;;;4997827;28;20049;-88
2022/02/14 03:38:36;;;;;;;11.88;4.18;;;9.70;99.90;;;;;;4977656;28;20030;-86
2022/02/14 03:41:02;;;;;;;12.57;3.83;;;9.70;99.90;;;;;;4978239;28;20031;-87
2022/02/14 03:43:28;;;;;;;11.95;4.28;;;9.70;99.90;;;;;;4998367;28;20046;-85
2022/02/14 03:45:54;;;;;;;9.82;3.47;;;9.70;99.90;;;;;;5005084;28;20068;-87
2022/02/14 03:48:23;;;;;;;10.65;3.60;;;9.70;99.90;;;;;;4971795;28;20100;-86
2022/02/14 03:50:52;;;;;;;11.10;3.78;;;9.70;99.90;;;;;;4996380;28;20049;-85
2022/02/14 03:53:18;;;;;;;7.78;3.22;;;9.70;99.90;;;;;;4996777;28;20039;-84
2022/02/14 03:55:44;;;;;;;9.13;3.90;;;9.70;99.90;;;;;;4992314;28;20034;-89
2022/02/14 03:58:10;;;;;;;12.57;3.60;;;9.70;99.90;;;;;;5005241;28;20071;-88
2022/02/14 04:00:36;;;;;;;9.75;3.75;;;9.70;99.90;;;;;;4979011;28;20196;-86
2022/02/14 04:03:02;;;;;;;9.77;3.40;;;9.70;99.90;;;;;;4996362;28;20045;-86
2022/02/14 04:05:28;;;;;;;7.60;3.30;;;9.70;99.90;;;;;;4981980;28;20487;-85
2022/02/14 04:07:58;;;;;;;8.27;3.63;;;9.80;99.90;;;;;;4993853;28;20042;-86
2022/02/14 04:10:25;;;;;;;12.20;3.50;;;9.80;99.90;;;;;;5009402;28;20405;-86
2022/02/14 04:12:55;;;;;;;11.88;3.53;;;9.90;99.90;;;;;;4992338;28;20137;-87
2022/02/14 04:15:22;;;;;;;12.85;3.95;;;9.90;99.90;;;;;;5009468;28;20121;-85
2022/02/14 04:17:48;;;;;;;9.30;3.47;;;9.90;99.90;;;;;;4994656;28;20038;-87
2022/02/14 04:20:14;;;;;;;5.47;3.03;;;9.80;99.90;;;;;;4995836;28;20096;-88
2022/02/14 04:22:40;;;;;;;9.98;3.10;;;9.80;99.90;;;;;;4982158;28;20339;-88
2022/02/14 04:25:14;;;;;;;14.40;3.35;;;9.80;99.90;;;;;;4998586;28;20121;-87
2022/02/14 04:27:41;;;;;;;11.75;3.22;;;9.90;99.90;;;;;;5011751;28;20152;-84
2022/02/14 04:30:08;;;;;;;9.45;3.05;;;9.90;99.90;;;;;;4995227;28;20034;-88
2022/02/14 04:32:34;;;;;;;7.85;3.47;;;9.90;99.90;;;;;;4988250;28;20038;-85
2022/02/14 04:35:00;;;;;;;7.72;2.95;;;9.90;99.90;;;;;;5011404;28;20736;-87
2022/02/14 04:37:26;;;;;;;11.32;3.17;;;10.00;99.90;;;;;;4976647;28;20113;-83
2022/02/14 04:39:52;;;;;;;8.55;2.88;;;10.00;99.90;;;;;;4977096;28;20037;-88
2022/02/14 04:42:18;;;;;;;7.32;3.10;;;10.00;99.90;;;;;;4980349;28;20492;-86
2022/02/14 04:44:44;;;;;;;12.40;3.33;;;10.10;99.90;;;;;;4981690;28;20408;-85
2022/02/14 04:47:09;;;;;;;10.15;2.88;;;10.10;99.90;;;;;;4983542;28;20520;-85
2022/02/14 04:49:35;;;;;;;6.72;2.88;;;10.20;99.90;;;;;;4992740;28;20073;-86
2022/02/14 04:52:01;;;;;;;12.73;3.63;;;10.20;99.90;;;;;;4966138;28;20031;-85
2022/02/14 04:54:27;;;;;;;11.60;3.25;;;10.20;99.90;;;;;;4984899;28;20038;-87
2022/02/14 04:56:53;;;;;;;10.63;3.05;;;10.20;99.90;;;;;;4986260;28;20168;-87
2022/02/14 04:59:19;;;;;;;5.53;2.65;;;10.20;99.90;;;;;;4995881;28;20394;-86
2022/02/14 05:01:45;;;;;;;11.02;3.05;;;10.30;99.90;;;;;;4995237;28;20052;-86
2022/02/14 05:04:10;;;;;;;11.00;3.47;;;10.20;99.90;;;;;;4986387;28;20034;-87
2022/02/14 05:06:36;;;;;;;10.50;3.03;;;10.30;99.90;;;;;;4982344;28;20037;-86
2022/02/14 05:09:03;;;;;;;10.25;3.28;;;10.30;99.90;;;;;;4969440;28;20048;-89
2022/02/14 05:11:28;;;;;;;11.73;3.10;;;10.30;99.90;;;;;;4965954;28;20053;-87
2022/02/14 05:13:54;;;;;;;8.48;2.90;;;10.30;99.90;;;;;;4980131;28;20038;-88
2022/02/14 05:16:23;;;;;;;11.88;3.70;;;10.40;99.90;;;;;;4976168;28;20034;-86
2022/02/14 05:18:49;;;;;;;8.25;3.05;;;10.30;99.90;;;;;;4982870;28;20500;-90
2022/02/14 05:21:15;;;;;;;9.65;3.10;;;10.30;99.90;;;;;;4998221;28;20034;-88
2022/02/14 05:23:41;;;;;;;8.98;2.75;;;10.30;99.90;;;;;;4984095;28;20553;-84
2022/02/14 05:26:08;;;;;;;16.17;3.13;;;10.30;99.90;;;;;;4984702;28;20048;-87
2022/02/14 05:28:33;;;;;;;10.43;3.63;;;10.40;99.90;;;;;;4991944;28;20093;-86
2022/02/14 05:30:59;;;;;;;6.72;2.75;;;10.40;99.90;;;;;;4983124;28;20041;-86
2022/02/14 05:33:25;;;;;;;5.40;2.65;;;10.40;99.90;;;;;;4971398;28;20030;-87
2022/02/14 05:35:51;;;;;;;13.85;3.65;;;10.40;99.90;;;;;;4969368;28;20076;-85
2022/02/14 05:38:17;;;;;;;8.02;3.00;;;10.30;99.90;;;;;;4979358;28;20119;-88
2022/02/14 05:40:43;;;;;;;8.85;3.05;;;10.30;99.90;;;;;;4992062;28;20062;-85
2022/02/14 05:43:09;;;;;;;11.43;3.58;;;10.30;99.90;;;;;;5007459;28;20124;-85
2022/02/14 05:45:35;;;;;;;11.00;3.10;;;10.30;99.90;;;;;;4963435;28;20049;-87
2022/02/14 05:48:01;;;;;;;5.55;2.60;;;10.30;99.90;;;;;;4963323;28;20038;-85
2022/02/14 05:50:36;;;;;;;11.57;3.38;;;10.30;99.90;;;;;;4974869;28;20262;-87
2022/02/14 05:53:02;;;;;;;7.80;3.22;;;10.40;99.90;;;;;;4974008;28;20420;-85
2022/02/14 05:55:31;;;;;;;6.82;2.40;;;10.40;99.90;;;;;;5004487;28;20119;-89
2022/02/14 05:57:57;;;;;;;9.27;3.70;;;10.40;99.90;;;;;;4976874;28;20515;-87
2022/02/14 06:00:23;;;;;;;9.25;2.63;;;10.40;99.90;;;;;;4967894;28;20034;-87
2022/02/14 06:02:48;;;;;;;7.90;3.28;;;10.40;99.90;;;;;;4996164;28;20050;-84
2022/02/14 06:05:16;;;;;;;10.07;2.90;;;10.40;99.90;;;;;;4985449;28;20057;-85
2022/02/14 06:07:41;;;;;;;8.20;2.53;;;10.40;99.90;;;;;;4987514;28;20038;-85
2022/02/14 06:10:07;;;;;;;10.65;2.72;;;10.40;99.90;;;;;;5016029;28;20148;-85
2022/02/14 06:12:33;;;;;;;8.55;3.03;;;10.40;99.90;;;;;;4984777;28;20042;-86
2022/02/14 06:15:00;;;;;;;7.07;2.83;;;10.40;99.30;;;;;;4970170;28;20038;-85
2022/02/14 06:17:25;;;;;;;8.02;2.83;;;10.40;99.20;;;;;;4966131;28;20044;-87
2022/02/14 06:19:51;;;;;;;7.72;3.30;;;10.40;99.90;;;;;;4994838;28;20424;-84
2022/02/14 06:22:17;;;;;;;10.13;2.72;;;10.40;99.90;;;;;;4994948;28;20073;-86
2022/02/14 06:24:43;;;;;;;11.38;3.05;;;10.40;99.90;;;;;;4995196;28;20046;-83
2022/02/14 06:27:09;;;;;;;6.10;2.80;;;10.30;99.90;;;;;;5008248;28;20045;-86
2022/02/14 06:29:34;;;;;;;7.10;2.67;;;10.30;99.90;;;;;;5011232;28;20218;-84
2022/02/14 06:32:00;;;;;;;9.05;2.40;;;10.30;99.90;;;;;;4993039;28;20042;-84
2022/02/14 06:34:26;;;;;;;9.30;2.67;;;10.20;99.90;;;;;;5009943;28;20105;-86
2022/02/14 06:36:52;;;;;;;9.05;2.83;;;10.20;99.90;;;;;;4990115;28;20396;-87
2022/02/14 06:39:18;;;;;;;6.22;2.50;;;10.20;99.90;;;;;;4967867;28;21241;-88
2022/02/14 06:41:45;;;;;;;8.02;2.70;;;10.20;99.90;;;;;;4985301;28;20134;-86
2022/02/14 06:44:11;;;;;;;8.65;2.40;;;10.20;99.90;;;;;;5003872;28;20041;-85
2022/02/14 06:46:37;;;;;;;4.20;2.40;;;10.20;99.90;;;;;;4988105;28;20613;-86
2022/02/14 06:49:06;;;;;;;8.27;3.15;;;10.20;99.90;;;;;;4986645;28;20412;-85
2022/02/14 06:51:36;;;;;;;5.47;2.45;;;10.20;99.90;;;;;;4984671;28;20042;-88
2022/02/14 06:54:03;;;;;;;10.02;2.67;;;10.20;99.90;;;;;;4998584;28;20483;-85
2022/02/14 06:56:35;;;;;;;11.60;2.30;;;10.20;99.90;;;;;;5003146;28;20041;-85
2022/02/14 06:59:01;;;;;;;6.80;2.47;;;10.30;99.90;;;;;;4959981;28;20033;-85
2022/02/14 07:01:26;;;;;;;11.70;2.63;;;10.30;99.90;;;;;;4962030;28;20189;-85
2022/02/14 07:03:52;;;;;;;6.18;2.55;;;10.30;99.90;;;;;;4985014;28;20120;-86
2022/02/14 07:06:18;;;;;;;6.05;2.50;;;10.20;99.90;;;;;;4964092;28;20109;-86
2022/02/14 07:08:47;;;;;;;11.55;3.20;;;10.30;99.90;;;;;;5007461;28;20042;-85
2022/02/14 07:11:12;;;;;;;5.82;2.20;;;10.20;99.90;;;;;;4978057;28;20049;-87
2022/02/14 07:13:38;;;;;;;9.23;2.70;;;10.30;99.90;;;;;;4967722;28;20484;-84
2022/02/14 07:16:04;;;;;;;10.27;2.70;;;10.20;99.90;;;;;;4963549;28;20039;-86
2022/02/14 07:18:45;;;;;;;6.50;2.40;;;10.20;99.90;;;;;;4998009;28;20051;-87
2022/02/14 07:21:11;;;;;;;5.10;2.65;;;10.20;99.90;;;;;;4996881;28;20052;-86
2022/02/14 07:23:36;;;;;;;7.70;2.63;;;10.20;99.90;;;;;;4992270;28;20034;-85
2022/02/14 07:26:02;;;;;;;7.10;2.50;;;10.20;99.90;;;;;;4982387;28;20071;-87
2022/02/14 07:28:28;;;;;;;8.00;2.50;;;10.20;99.90;;;;;;5008079;28;20514;-85
2022/02/14 07:30:54;;;;;;;5.13;2.30;;;10.10;99.90;;;;;;5006855;28;20209;-86
2022/02/14 07:33:20;;;;;;;8.38;2.80;;;10.20;99.90;;;;;;4967269;28;20046;-85
2022/02/14 07:35:47;;;;;;;6.78;2.80;;;10.20;99.90;;;;;;5009790;28;20044;-87
2022/02/14 07:38:12;;;;;;;8.57;2.53;;;10.20;99.90;;;;;;4964498;28;20034;-87
2022/02/14 07:40:39;;;;;;;5.68;2.70;;;10.20;99.90;;;;;;5002360;28;20049;-83
2022/02/14 07:43:07;;;;;;;5.47;2.50;;;10.20;99.90;;;;;;4983574;28;20046;-87
2022/02/14 07:45:33;;;;;;;7.20;2.45;;;10.20;99.90;;;;;;4991663;28;20065;-88
2022/02/14 07:47:59;;;;;;;7.20;3.03;;;10.20;99.90;;;;;;4978173;28;20049;-86
2022/02/14 07:50:26;;;;;;;8.05;2.80;;;10.30;99.90;;;;;;5010102;28;20037;-85
2022/02/14 07:52:55;;;;;;;6.75;2.70;;;10.30;99.90;;;;;;4982385;28;20045;-86
2022/02/14 07:55:21;;;;;;;6.35;2.70;;;10.30;99.90;;;;;;4978309;28;20041;-87
2022/02/14 07:57:49;;;;;;;10.07;2.55;;;10.30;99.90;;;;;;4979669;28;20033;-88
2022/02/14 08:00:16;;;;;;;8.95;2.72;;;10.30;99.90;;;;;;4977114;28;20034;-84
2022/02/14 08:02:42;;;;;;;10.57;2.75;;;10.40;99.90;;;;;;4980218;28;20367;-85
2022/02/14 08:05:08;;;;;;;7.25;2.65;;;10.40;99.90;;;;;;4963516;28;20064;-85
2022/02/14 08:07:34;;;;;;;9.57;3.05;;;10.40;99.90;;;;;;5015852;28;20038;-85
2022/02/14 08:10:00;;;;;;;5.28;2.33;;;10.40;99.90;;;;;;4995371;28;20038;-86
2022/02/14 08:12:26;;;;;;;6.22;2.35;;;10.50;99.90;;;;;;4963969;28;20050;-85
2022/02/14 08:14:52;;;;;;;6.03;2.55;;;10.50;99.90;;;;;;4983008;28;20405;-85
2022/02/14 08:17:18;;;;;;;4.72;1.80;;;10.50;99.90;;;;;;4986779;28;20068;-86
2022/02/14 08:19:44;;;;;;;10.80;2.85;;;10.50;99.90;;;;;;4962568;28;20062;-85
2022/02/14 08:22:10;;;;;;;9.93;2.65;;;10.40;99.90;;;;;;5011428;28;20124;-90
2022/02/14 08:24:39;;;;;;;6.82;2.75;;;10.50;99.90;;;;;;4997886;28;20042;-88
2022/02/14 08:27:05;;;;;;;7.28;2.80;;;10.40;99.90;;;;;;4976221;28;20700;-85
2022/02/14 08:29:32;;;;;;;4.00;2.55;;;10.40;99.90;;;;;;4994700;28;20121;-85
2022/02/14 08:31:57;;;;;;;5.32;2.47;;;10.40;99.90;;;;;;5002908;28;20132;-87
2022/02/14 08:34:23;;;;;;;5.28;2.03;;;10.40;99.90;;;;;;4977868;28;20113;-86
2022/02/14 08:36:49;;;;;;;6.72;2.70;;;10.40;99.90;;;;;;4967345;28;20038;-88
2022/02/14 08:39:19;;;;;;;5.53;2.70;;;10.30;99.90;;;;;;4963266;28;20045;-86
2022/02/14 08:41:46;;;;;;;6.97;2.70;;;10.30;99.90;;;;;;4978734;28;20128;-86
2022/02/14 08:44:12;;;;;;;7.80;2.78;;;10.30;99.90;;;;;;4995762;28;20074;-84
2022/02/14 08:46:39;;;;;;;6.90;2.97;;;10.20;99.90;;;;;;4979883;28;20061;-86
2022/02/14 08:49:05;;;;;;;6.90;2.65;;;10.20;99.90;;;;;;4984803;28;20572;-85
2022/02/14 08:51:31;;;;;;;6.25;2.63;;;10.20;99.90;;;;;;4973853;28;20046;-87
2022/02/14 08:53:58;;;;;;;6.72;2.92;;;10.20;99.90;;;;;;5003854;28;20038;-86
2022/02/14 08:56:24;;;;;;;11.13;3.30;;;10.20;99.90;;;;;;4982907;28;20046;-87
2022/02/14 08:58:50;;;;;;;5.53;2.30;;;10.20;99.90;;;;;;5001760;28;20089;-86
2022/02/14 09:01:17;;;;;;;7.20;2.60;;;10.20;99.90;;;;;;4961316;28;20120;-85
2022/02/14 09:03:43;;;;;;;6.47;2.67;;;10.20;99.90;;;;;;4997000;28;20042;-85
2022/02/14 09:06:12;;;;;;;5.18;2.50;;;10.20;99.90;;;;;;4991674;28;20127;-85
2022/02/14 09:08:38;;;;;;;6.97;3.13;;;10.10;99.90;;;;;;4996359;28;20178;-85
2022/02/14 09:11:04;;;;;;;9.18;2.70;;;10.10;99.90;;;;;;5005614;28;20297;-84
2022/02/14 09:13:32;;;;;;;4.25;2.50;;;10.10;99.90;;;;;;4964573;28;20104;-87
2022/02/14 09:15:59;;;;;;;9.00;2.85;;;10.10;99.90;;;;;;4995905;28;20046;-85
2022/02/14 09:18:25;;;;;;;8.38;2.58;;;10.10;99.90;;;;;;4997541;28;20042;-86
2022/02/14 09:20:51;;;;;;;5.80;2.67;;;10.10;99.90;;;;;;4977681;28;20038;-88
2022/02/14 09:23:19;;;;;;;7.53;2.83;;;10.10;99.90;;;;;;4987485;28;20471;-84
2022/02/14 09:25:45;;;;;;;6.32;2.88;;;10.00;99.90;;;;;;4994263;28;20037;-85
2022/02/14 09:28:12;;;;;;;5.15;3.08;;;10.00;99.90;;;;;;4988997;28;20111;-84
2022/02/14 09:30:37;;;;;;;7.18;2.83;;;9.90;99.90;;;;;;5001616;28;20056;-87
2022/02/14 09:33:03;;;;;;;8.27;3.45;;;9.80;99.90;;;;;;5016462;28;20034;-85
2022/02/14 09:35:30;;;;;;;6.63;2.95;;;9.70;99.90;;;;;;5007432;23;20874;-89
2022/02/14 09:37:59;;;;;;;7.45;3.97;;;9.60;99.90;;;;;;4991438;28;20041;-86
2022/02/14 09:40:27;;;;;;;5.03;3.60;;;9.40;99.90;;;;;;5005192;28;20111;-86
2022/02/14 09:42:55;;;;;;;6.57;3.97;;;9.40;99.90;;;;;;4991089;28;20418;-87
2022/02/14 09:45:24;;;;;;;8.85;4.63;;;9.20;99.90;;;;;;5018457;28;20037;-86
2022/02/14 09:48:07;;;;;;;13.23;4.57;;;9.10;99.90;;;;;;5006724;28;20573;-86
2022/02/14 09:50:37;;;;;;;8.57;4.72;;;9.00;99.90;;;;;;5004796;28;20038;-85
2022/02/14 09:53:06;;;;;;;9.18;4.10;;;8.90;99.90;;;;;;5004773;28;20037;-86
2022/02/14 09:55:35;;;;;;;9.00;4.68;;;8.80;99.90;;;;;;5012093;28;20103;-86
2022/02/14 09:58:00;;;;;;;9.98;5.40;;;8.80;99.90;;;;;;5022928;28;20033;-86
2022/02/14 10:00:26;;;;;;;10.68;5.07;;;8.70;99.90;;;;;;4967965;28;20480;-87
2022/02/14 10:03:13;;;;;;;13.10;5.57;;;8.60;99.90;;;;;;4994115;28;20051;-86
2022/02/14 10:05:59;;;;;;;7.88;5.10;;;8.70;99.90;;;;;;5003789;28;20139;-87
2022/02/14 10:08:35;;;;;;;8.88;5.35;;;8.70;99.90;;;;;;4987151;28;20067;-88
2022/02/14 10:11:23;;;;;;;9.55;5.22;;;8.70;99.90;;;;;;5006617;28;20038;-86
2022/02/14 10:13:51;;;;;;;8.50;5.30;;;8.80;99.90;;;;;;5003399;28;20044;-86
2022/02/14 10:16:18;;;;;;;10.65;6.07;;;8.90;99.90;;;;;;5000543;28;20142;-87
2022/02/14 10:18:44;;;;;;;9.63;6.13;;;8.90;99.90;;;;;;5002681;28;20037;-86
2022/02/14 10:21:16;;;;;;;7.63;5.68;;;9.10;99.90;;;;;;4977137;28;20041;-86
2022/02/14 10:24:08;;;;;;;9.00;5.03;;;9.10;99.90;;;;;;4990556;28;20133;-87
2022/02/14 10:26:36;;;;;;;7.80;5.33;;;9.30;99.90;;;;;;5024324;28;20164;-86
2022/02/14 10:29:21;;;;;;;6.65;4.63;;;9.40;99.90;;;;;;5016588;28;20406;-87
2022/02/14 10:31:50;;;;;;;8.00;4.55;;;9.40;99.90;;;;;;5014905;28;20055;-85
2022/02/14 10:34:18;;;;;;;5.85;5.00;;;9.50;99.90;;;;;;5008686;28;20098;-85
2022/02/14 10:36:45;;;;;;;8.00;4.78;;;9.60;99.90;;;;;;5017844;28;20033;-88
2022/02/14 10:39:16;;;;;;;4.95;4.28;;;9.60;99.90;;;;;;4992165;28;20439;-87
2022/02/14 10:41:45;;;;;;;7.30;4.53;;;9.70;99.90;;;;;;5011773;28;20091;-87
2022/02/14 10:44:11;;;;;;;4.65;3.90;;;9.70;99.90;;;;;;5006833;28;20044;-89
2022/02/14 10:46:37;;;;;;;6.03;3.40;;;9.80;99.90;;;;;;5026013;28;20049;-86
2022/02/14 10:49:07;;;;;;;6.35;3.95;;;9.80;99.90;;;;;;4994914;28;20419;-86
2022/02/14 10:51:36;;;;;;;3.60;3.25;;;9.80;99.90;;;;;;4999843;28;20397;-86
2022/02/14 10:54:03;;;;;;;6.53;3.53;;;9.80;99.90;;;;;;4989861;28;20045;-86
2022/02/14 10:56:39;;;;;;;7.47;4.32;;;9.90;99.90;;;;;;4992896;28;20118;-86
2022/02/14 10:59:14;;;;;;;4.68;3.33;;;10.00;99.90;;;;;;5010122;28;20554;-89
2022/02/14 11:01:43;;;;;;;6.47;3.72;;;10.00;99.90;;;;;;5002519;28;20052;-88
2022/02/14 11:04:09;;;;;;;5.47;3.70;;;10.00;99.90;;;;;;5009061;28;20037;-87
2022/02/14 11:06:39;;;;;;;6.78;3.90;;;9.90;99.90;;;;;;5018857;28;20518;-87
2022/02/14 11:09:05;;;;;;;3.80;3.40;;;10.00;99.90;;;;;;4998622;28;20519;-87
2022/02/14 11:11:38;;;;;;;3.95;3.35;;;10.00;99.90;;;;;;4994362;28;20041;-88
2022/02/14 11:14:06;;;;;;;7.35;3.97;;;10.10;99.90;;;;;;5023345;28;20080;-87
2022/02/14 11:16:36;;;;;;;4.53;3.67;;;10.10;99.90;;;;;;5008191;28;20029;-87
2022/02/14 11:19:03;;;;;;;4.75;3.53;;;10.20;99.90;;;;;;5002202;28;20486;-87
2022/02/14 11:21:32;;;;;;;4.72;3.20;;;10.20;99.90;;;;;;5006023;28;20576;-86
2022/02/14 11:24:02;;;;;;;7.65;3.80;;;10.10;99.90;;;;;;5006229;28;20125;-87
2022/02/14 11:26:42;;;;;;;4.95;3.47;;;10.20;99.90;;;;;;5007096;28;20041;-86
2022/02/14 11:29:25;;;;;;;6.07;3.55;;;10.20;99.90;;;;;;5004436;28;20246;-87
2022/02/14 11:32:14;;;;;;;6.05;3.53;;;10.30;99.90;;;;;;4996864;28;20034;-86
2022/02/14 11:35:17;;;;;;;6.20;3.47;;;10.30;99.90;;;;;;5022963;28;20052;-88
2022/02/14 11:37:54;;;;;;;4.53;3.15;;;10.40;99.90;;;;;;5001955;28;20048;-87
2022/02/14 11:40:27;;;;;;;5.70;3.05;;;10.40;99.90;;;;;;5007859;28;20048;-88
2022/02/14 11:43:08;;;;;;;4.80;3.53;;;10.50;99.90;;;;;;4999093;28;20049;-87
2022/02/14 11:45:35;;;;;;;4.43;3.47;;;10.60;99.90;;;;;;4999402;28;20163;-86
2022/02/14 11:48:27;;;;;;;6.03;3.13;;;10.60;99.90;;;;;;5001776;28;20191;-86
2022/02/14 11:51:35;;;;;;;4.40;3.10;;;10.70;99.90;;;;;;4997434;28;20041;-88
2022/02/14 11:54:04;;;;;;;3.35;2.75;;;10.80;99.90;;;;;;4998007;28;20326;-87
2022/02/14 11:56:32;;;;;;;4.28;3.15;;;10.90;99.90;;;;;;5000669;28;20428;-85
2022/02/14 11:59:10;;;;;;;3.70;3.20;;;10.80;99.90;;;;;;5014183;28;20302;-86
2022/02/14 12:01:45;;;;;;;4.88;3.50;;;10.70;99.90;;;;;;5011951;28;20405;-86
2022/02/14 12:04:40;;;;;;;4.80;3.15;;;10.60;99.90;;;;;;5011140;28;20037;-86
2022/02/14 12:07:33;;;;;;;5.85;3.97;;;10.70;99.90;;;;;;5003421;28;20120;-85
2022/02/14 12:10:03;;;;;;;;;;;10.70;99.90;;;;;;5002913;28;20046;-87
2022/02/14 12:21:03;;;;;;;5.65;3.28;;;11.00;99.90;;;;;;5023450;28;20045;-91
2022/02/14 12:23:39;;;;;;;5.13;2.60;;;11.10;99.90;;;;;;5010140;28;20489;-89
2022/02/14 12:26:06;;;;;;;8.18;1.95;;;11.10;99.90;;;;;;5011573;28;20082;-89
2022/02/14 12:28:33;;;;;;;4.93;2.15;;;11.10;99.90;;;;;;5009282;28;20045;-89
2022/02/14 12:30:59;;;;;;;3.38;1.90;;;11.10;99.90;;;;;;5002977;28;20515;-88
2022/02/14 12:33:26;;;;;;;8.50;2.22;;;11.10;99.90;;;;;;4987875;28;20103;-88
2022/02/14 12:35:58;;;;;;;3.90;1.90;;;11.00;99.90;;;;;;4994410;28;20430;-88
2022/02/14 12:38:31;;;;;;;4.60;1.90;;;10.90;99.90;;;;;;5009510;28;20029;-88
2022/02/14 12:40:58;;;;;;;;;;;10.80;99.90;;;;;;5007492;28;20514;-89
2022/02/14 12:43:28;;;;;;;6.32;2.40;;;10.70;99.90;;;;;;5010502;28;19917;-86
2022/02/14 12:46:06;;;;;;;4.07;2.10;;;10.60;99.90;;;;;;5002683;28;20188;-86
2022/02/14 12:48:40;;;;;;;4.10;1.83;;;10.60;99.90;;;;;;5012867;28;20057;-88
2022/02/14 12:51:22;;;;;;;6.78;2.30;;;10.60;99.90;;;;;;5002813;28;20287;-85
2022/02/14 12:53:59;;;;;;;4.15;2.20;;;10.60;99.90;;;;;;4991959;28;20132;-88
2022/02/14 12:56:34;;;;;;;5.07;1.90;;;10.60;99.90;;;;;;4993743;28;20033;-89
2022/02/14 12:59:06;;;;;;;11.90;2.05;;;10.60;99.90;;;;;;5028927;28;20407;-86
2022/02/14 13:01:46;;;;;;;4.53;1.98;;;10.60;99.90;;;;;;5011106;28;20044;-86